Saint George, Utah
Current Conditions -  °F | °C
As of 2:55 PM on Monday 20 Oct 2014 (Local Time) from KSGU Reporting Station
Clear Clear  
Wind Chill: 84°   Ceiling: Unl
Heat Index: 84°   Visibility: 10mi
Dew Point: 43°   Wind: 3mph
Humidity: 23%   Direction: 290°WNW
Pressure: 29.93"   Gusts: NA
Location:  37.08°N, 113.6°W
Report Text: KSGU 202055Z AUTO 29003KT 10SM CLR 29/06 A2993 RMK AO1 57034
Loading
Personal Weather Stations






























Interactive Weather Map New forecast layout! Learn more

10-Day Weather Forecast

Advertisements
Track Severe Weather on mobile